Time;durP1;ratioP1;P1;durP2;ratioP2;P2;SDS_P1;SDS_P2;PMS_P1;PMS_P2;Temp;Humidity;BMP_temperature;BMP_pressure;BME280_temperature;BME280_humidity;BME280_pressure;Samples;Min_cycle;Max_cycle;Signal;HPM_P1;HPM_P2
2022/01/13 00:00:30;;;;;;;127.50;77.85;;;0.10;99.90;;;;;;5012080;28;20036;-76
2022/01/13 00:02:56;;;;;;;119.40;69.75;;;0.10;99.90;;;;;;5011980;28;20030;-76
2022/01/13 00:05:29;;;;;;;112.57;65.35;;;0.10;99.90;;;;;;5011959;28;20101;-78
2022/01/13 00:07:57;;;;;;;117.90;67.40;;;0.00;99.90;;;;;;5011298;28;20026;-76
2022/01/13 00:10:27;;;;;;;106.45;61.47;;;0.00;99.90;;;;;;5011726;28;20271;-77
2022/01/13 00:12:59;;;;;;;101.05;58.78;;;0.00;99.90;;;;;;5011953;28;20042;-73
2022/01/13 00:18:13;;;;;;;97.32;56.58;;;0.00;99.90;;;;;;5011566;28;20030;-76
2022/01/13 00:21:14;;;;;;;83.50;53.22;;;0.10;99.90;;;;;;5011836;28;20018;-78
2022/01/13 00:26:08;;;;;;;87.40;52.55;;;0.10;99.90;;;;;;5011405;28;20050;-78
2022/01/13 00:28:35;;;;;;;89.95;52.88;;;0.10;99.90;;;;;;5011339;28;20786;-77
2022/01/13 00:31:05;;;;;;;99.65;60.10;;;0.10;99.90;;;;;;4999399;28;20165;-78
2022/01/13 00:33:31;;;;;;;98.20;61.80;;;0.10;99.90;;;;;;5014741;28;20046;-78
2022/01/13 00:35:59;;;;;;;112.95;67.32;;;0.10;99.90;;;;;;5011663;28;20044;-76
2022/01/13 00:38:30;;;;;;;103.05;60.22;;;0.10;99.90;;;;;;5011432;28;20476;-78
2022/01/13 00:40:57;;;;;;;94.28;52.03;;;0.10;99.90;;;;;;5012298;28;20025;-79
2022/01/13 00:43:23;;;;;;;121.07;71.38;;;0.00;99.90;;;;;;5011457;28;20402;-78
2022/01/13 00:45:50;;;;;;;108.43;62.33;;;-0.10;99.90;;;;;;5011596;28;20030;-78
2022/01/13 00:48:17;;;;;;;106.40;63.20;;;-0.10;99.90;;;;;;5012072;28;20026;-79
2022/01/13 00:50:43;;;;;;;102.90;62.83;;;-0.10;99.90;;;;;;5011727;28;20045;-78
2022/01/13 00:53:09;;;;;;;92.65;56.65;;;-0.10;99.90;;;;;;5011436;28;20026;-78
2022/01/13 00:58:14;;;;;;;102.75;63.53;;;-0.20;99.90;;;;;;5011133;28;20042;-78
2022/01/13 01:00:40;;;;;;;97.03;61.72;;;-0.20;99.90;;;;;;5011584;28;20473;-77
2022/01/13 01:03:07;;;;;;;97.10;59.78;;;-0.10;99.90;;;;;;5003512;28;20077;-78
2022/01/13 01:05:34;;;;;;;98.32;59.67;;;-0.20;99.90;;;;;;5011380;28;20108;-79
2022/01/13 01:08:03;;;;;;;90.85;57.42;;;-0.10;99.90;;;;;;5011275;28;20105;-78
2022/01/13 01:10:29;;;;;;;107.00;64.78;;;-0.10;99.90;;;;;;5011278;28;20033;-79
2022/01/13 01:12:55;;;;;;;107.10;64.53;;;-0.10;99.90;;;;;;5011077;28;20042;-79
2022/01/13 01:15:21;;;;;;;110.68;64.82;;;-0.10;99.90;;;;;;5011123;28;20084;-77
2022/01/13 01:17:53;;;;;;;108.80;62.65;;;-0.10;99.90;;;;;;5014444;28;20037;-77
2022/01/13 01:20:20;;;;;;;106.25;61.97;;;-0.10;99.90;;;;;;5014694;28;20033;-77
2022/01/13 01:27:55;;;;;;;99.60;60.15;;;-0.10;99.90;;;;;;5014513;28;20034;-75
2022/01/13 01:30:32;;;;;;;96.80;58.55;;;-0.20;99.90;;;;;;5014571;28;20064;-77
2022/01/13 01:32:58;;;;;;;92.10;57.08;;;-0.10;99.90;;;;;;5014415;28;20061;-76
2022/01/13 01:35:27;;;;;;;98.68;56.20;;;-0.20;99.90;;;;;;5014374;28;20064;-76
2022/01/13 01:37:54;;;;;;;102.25;56.30;;;-0.20;99.90;;;;;;5014472;28;20388;-76
2022/01/13 01:40:22;;;;;;;87.07;55.03;;;-0.20;99.90;;;;;;5014626;28;20452;-77
2022/01/13 01:42:48;;;;;;;95.60;56.70;;;-0.20;99.90;;;;;;5013563;28;20045;-74
2022/01/13 01:45:15;;;;;;;90.43;55.63;;;-0.20;99.90;;;;;;5014223;28;20161;-76
2022/01/13 01:47:43;;;;;;;102.55;65.03;;;-0.10;99.90;;;;;;5014246;28;20760;-75
2022/01/13 01:50:18;;;;;;;119.47;67.80;;;-0.20;99.90;;;;;;5014153;28;20034;-76
2022/01/13 01:52:46;;;;;;;112.53;66.78;;;-0.10;99.90;;;;;;5014034;28;20033;-76
2022/01/13 01:55:13;;;;;;;108.53;65.18;;;-0.10;99.90;;;;;;5014189;28;20025;-78
2022/01/13 01:57:39;;;;;;;109.30;65.28;;;-0.20;99.90;;;;;;5013625;28;20074;-78
2022/01/13 02:00:09;;;;;;;102.97;62.42;;;-0.10;99.90;;;;;;5013836;28;20095;-79
2022/01/13 02:02:38;;;;;;;106.80;62.05;;;-0.10;99.90;;;;;;5014179;28;20038;-77
2022/01/13 02:05:05;;;;;;;87.05;58.60;;;-0.10;99.90;;;;;;5014025;28;20042;-76
2022/01/13 02:07:31;;;;;;;96.35;57.38;;;-0.30;99.90;;;;;;5013984;28;20105;-78
2022/01/13 02:09:57;;;;;;;85.18;52.70;;;-0.20;99.90;;;;;;5013933;28;20117;-78
2022/01/13 02:12:45;;;;;;;88.43;55.03;;;-0.40;99.90;;;;;;4995843;28;20463;-74
2022/01/13 02:17:39;;;;;;;93.25;56.42;;;-0.40;99.90;;;;;;5013675;28;20068;-77
2022/01/13 02:20:06;;;;;;;86.57;51.55;;;-0.40;99.90;;;;;;5013656;28;20395;-76
2022/01/13 02:22:33;;;;;;;79.40;48.40;;;-0.50;99.90;;;;;;5013989;28;20030;-76
2022/01/13 02:25:00;;;;;;;78.15;51.30;;;-0.50;99.90;;;;;;5013981;28;20030;-77
2022/01/13 02:27:26;;;;;;;78.80;50.75;;;-0.60;99.90;;;;;;5011731;28;20022;-77
2022/01/13 02:29:52;;;;;;;86.00;49.90;;;-0.60;99.90;;;;;;5013348;28;20388;-77
2022/01/13 02:32:19;;;;;;;100.60;58.55;;;-0.70;99.90;;;;;;5013749;28;20472;-75
2022/01/13 02:34:46;;;;;;;82.88;52.20;;;-0.60;99.90;;;;;;5013460;28;20112;-75
2022/01/13 02:37:12;;;;;;;88.40;53.80;;;-0.60;99.90;;;;;;5013609;28;20037;-76
2022/01/13 02:39:38;;;;;;;79.28;49.35;;;-0.60;99.90;;;;;;5013509;28;20022;-76
2022/01/13 02:42:12;;;;;;;79.03;50.38;;;-0.60;99.90;;;;;;5013385;28;20029;-77
2022/01/13 02:44:49;;;;;;;78.25;48.92;;;-0.70;99.90;;;;;;5013322;28;20120;-76
2022/01/13 02:47:34;;;;;;;77.70;48.15;;;-0.70;99.90;;;;;;5013457;28;20376;-77
2022/01/13 02:50:00;;;;;;;76.95;48.05;;;-0.60;99.90;;;;;;5013314;28;20499;-73
2022/01/13 02:52:26;;;;;;;77.68;49.78;;;-0.60;99.90;;;;;;5013343;28;20034;-74
2022/01/13 02:54:52;;;;;;;91.18;54.45;;;-0.60;99.90;;;;;;5013325;28;20025;-77
2022/01/13 02:57:18;;;;;;;88.50;52.60;;;-0.60;99.90;;;;;;5012869;28;20447;-76
2022/01/13 02:59:43;;;;;;;87.85;53.53;;;-0.70;99.90;;;;;;5012608;28;20033;-77
2022/01/13 03:02:10;;;;;;;84.63;52.92;;;-0.70;99.90;;;;;;5013099;28;20030;-76
2022/01/13 03:04:36;;;;;;;92.05;55.22;;;-0.70;99.90;;;;;;4995625;28;20026;-76
2022/01/13 03:07:03;;;;;;;88.85;51.25;;;-0.80;99.90;;;;;;5013166;28;20069;-77
2022/01/13 03:09:29;;;;;;;88.72;53.78;;;-0.90;99.90;;;;;;5012850;28;20026;-77
2022/01/13 03:11:55;;;;;;;83.25;50.10;;;-0.90;99.90;;;;;;5012674;28;20049;-75
2022/01/13 03:14:21;;;;;;;93.03;53.47;;;-1.00;99.90;;;;;;5012902;28;20033;-77
2022/01/13 03:16:48;;;;;;;90.88;56.08;;;-1.10;99.90;;;;;;5012666;28;20017;-76
2022/01/13 03:19:14;;;;;;;90.82;55.47;;;-1.10;99.90;;;;;;5012444;28;20504;-78
2022/01/13 03:21:40;;;;;;;88.93;55.67;;;-1.10;99.90;;;;;;5012457;28;20100;-78
2022/01/13 03:24:10;;;;;;;94.20;56.75;;;-1.20;99.90;;;;;;5012542;28;20021;-77
2022/01/13 03:26:36;;;;;;;82.97;54.58;;;-1.40;99.90;;;;;;5012603;28;20018;-76
2022/01/13 03:31:39;;;;;;;83.80;55.05;;;-1.60;99.90;;;;;;5012652;28;20457;-76
2022/01/13 03:34:05;;;;;;;92.25;56.72;;;-1.70;99.90;;;;;;5012166;28;20034;-76
2022/01/13 03:36:32;;;;;;;104.18;64.63;;;-1.70;99.90;;;;;;5012236;28;20503;-74
2022/01/13 03:38:58;;;;;;;116.82;73.63;;;-1.80;99.90;;;;;;5012184;28;20037;-74
2022/01/13 03:41:24;;;;;;;129.45;76.38;;;-1.80;99.90;;;;;;5012344;28;20025;-76
2022/01/13 03:43:53;;;;;;;120.13;76.45;;;-1.80;99.90;;;;;;5012327;28;20109;-76
2022/01/13 03:46:20;;;;;;;125.93;73.00;;;-1.80;99.90;;;;;;5012184;28;20160;-78
2022/01/13 03:48:46;;;;;;;117.00;71.55;;;-1.70;99.90;;;;;;5011988;28;20591;-76
2022/01/13 03:51:13;;;;;;;93.28;58.35;;;-1.70;99.90;;;;;;5011833;28;20033;-77
2022/01/13 03:53:38;;;;;;;105.18;64.90;;;-1.70;99.90;;;;;;4994465;28;20038;-74
2022/01/13 03:56:38;;;;;;;106.20;63.30;;;-1.70;99.90;;;;;;5011972;28;20084;-75
2022/01/13 03:59:47;;;;;;;93.47;58.72;;;-1.90;99.90;;;;;;5010997;28;20376;-74
2022/01/13 04:02:14;;;;;;;92.47;58.45;;;-1.90;99.90;;;;;;5011972;28;20030;-74
2022/01/13 04:04:42;;;;;;;110.88;70.35;;;-2.00;99.90;;;;;;5012192;28;20045;-74
2022/01/13 04:07:12;;;;;;;114.32;73.97;;;-2.10;99.90;;;;;;5011829;28;20495;-74
2022/01/13 04:09:41;;;;;;;99.32;65.10;;;-2.10;99.90;;;;;;5011978;28;20030;-75
2022/01/13 04:12:10;;;;;;;101.55;61.40;;;-2.10;99.90;;;;;;5011827;28;20029;-76
2022/01/13 04:14:44;;;;;;;122.38;74.88;;;-2.10;99.90;;;;;;5012051;28;20084;-75
2022/01/13 04:17:17;;;;;;;130.10;83.07;;;-2.10;99.90;;;;;;5011627;28;20034;-75
2022/01/13 04:19:45;;;;;;;123.05;79.22;;;-2.10;99.90;;;;;;5011375;28;20045;-77
2022/01/13 04:22:13;;;;;;;106.10;72.93;;;-2.10;99.90;;;;;;5012075;28;20491;-76
2022/01/13 04:24:45;;;;;;;112.18;73.28;;;-2.10;99.90;;;;;;5011768;28;20480;-75
2022/01/13 04:27:20;;;;;;;105.40;68.95;;;-2.10;99.90;;;;;;4994255;28;20026;-74
2022/01/13 04:29:48;;;;;;;110.10;68.75;;;-2.20;99.90;;;;;;5011723;28;20033;-76
2022/01/13 04:32:15;;;;;;;101.22;65.20;;;-2.30;99.90;;;;;;5011387;28;20061;-76
2022/01/13 04:34:41;;;;;;;99.32;64.05;;;-2.30;99.90;;;;;;4994256;28;20546;-76
2022/01/13 04:37:07;;;;;;;104.10;65.65;;;-2.30;99.90;;;;;;4994091;28;20105;-74
2022/01/13 04:39:35;;;;;;;131.40;76.35;;;-2.40;99.90;;;;;;5011656;28;20030;-74
2022/01/13 04:42:01;;;;;;;99.35;64.00;;;-2.50;99.90;;;;;;5011713;28;20022;-75
2022/01/13 04:44:27;;;;;;;96.22;58.80;;;-2.60;99.90;;;;;;5011502;28;20036;-75
2022/01/13 04:46:55;;;;;;;90.20;57.10;;;-2.70;99.90;;;;;;5011429;28;20108;-74
2022/01/13 04:49:22;;;;;;;92.03;56.65;;;-2.70;99.90;;;;;;5011338;28;20473;-75
2022/01/13 04:51:49;;;;;;;92.03;56.85;;;-2.80;99.90;;;;;;5013330;28;20058;-74
2022/01/13 04:54:17;;;;;;;94.95;58.05;;;-2.70;99.90;;;;;;5015190;28;20034;-78
2022/01/13 04:57:03;;;;;;;98.85;57.35;;;-2.60;99.90;;;;;;5015009;28;20145;-76
2022/01/13 04:59:29;;;;;;;92.38;57.45;;;-2.60;99.90;;;;;;5014999;28;20448;-76
2022/01/13 05:01:55;;;;;;;99.25;61.88;;;-2.60;99.90;;;;;;5014730;28;20111;-73
2022/01/13 05:04:21;;;;;;;116.30;73.75;;;-2.50;99.90;;;;;;5014855;28;20041;-76
2022/01/13 05:06:47;;;;;;;113.18;72.55;;;-2.60;99.90;;;;;;5014865;28;20374;-74
2022/01/13 05:09:13;;;;;;;126.93;77.90;;;-2.70;99.90;;;;;;5015278;28;20038;-73
2022/01/13 05:11:39;;;;;;;124.68;81.00;;;-2.90;99.90;;;;;;5014895;28;20018;-71
2022/01/13 05:14:05;;;;;;;130.00;80.15;;;-2.90;99.90;;;;;;5014610;28;20101;-73
2022/01/13 05:16:53;;;;;;;120.28;83.35;;;-2.80;99.90;;;;;;5014476;28;20030;-73
2022/01/13 05:19:23;;;;;;;138.05;91.25;;;-2.80;99.90;;;;;;5014244;28;20042;-73
2022/01/13 05:24:28;;;;;;;141.98;87.95;;;-2.80;99.90;;;;;;5014309;28;20025;-69
2022/01/13 05:26:53;;;;;;;127.93;85.13;;;-2.80;99.90;;;;;;5014573;28;20444;-70
2022/01/13 05:29:20;;;;;;;139.50;90.55;;;-2.80;99.90;;;;;;5014657;28;20109;-73
2022/01/13 05:31:48;;;;;;;142.05;90.35;;;-2.80;99.90;;;;;;4996878;28;20380;-72
2022/01/13 05:34:16;;;;;;;126.28;83.03;;;-2.80;99.90;;;;;;5014675;28;20096;-74
2022/01/13 05:36:42;;;;;;;125.50;79.10;;;-2.80;99.90;;;;;;5014140;28;20468;-74
2022/01/13 05:39:10;;;;;;;132.07;85.97;;;-2.90;99.90;;;;;;5022288;28;20034;-74
2022/01/13 05:41:36;;;;;;;138.52;84.90;;;-2.80;99.90;;;;;;5015709;28;20033;-71
2022/01/13 05:44:03;;;;;;;138.43;85.60;;;-2.80;99.90;;;;;;5014569;28;20030;-74
2022/01/13 05:46:29;;;;;;;140.82;87.35;;;-2.80;99.90;;;;;;5014252;28;20129;-73
2022/01/13 05:48:54;;;;;;;141.07;89.38;;;-2.70;99.90;;;;;;5014036;28;20114;-73
2022/01/13 05:51:21;;;;;;;127.10;85.22;;;-2.80;99.90;;;;;;5018226;28;20034;-72
2022/01/13 05:53:48;;;;;;;130.57;81.47;;;-2.70;99.90;;;;;;5016490;28;20128;-74
2022/01/13 05:56:14;;;;;;;122.68;78.07;;;-2.70;99.90;;;;;;5021454;28;20021;-73
2022/01/13 05:58:41;;;;;;;126.18;79.70;;;-2.60;99.90;;;;;;5018835;28;20524;-73
2022/01/13 06:01:07;;;;;;;117.40;75.32;;;-2.60;99.90;;;;;;5015753;28;20026;-72
2022/01/13 06:03:34;;;;;;;113.70;73.65;;;-2.60;99.90;;;;;;5022562;28;20022;-74
2022/01/13 06:06:00;;;;;;;107.35;72.88;;;-2.50;99.90;;;;;;5014122;28;20075;-73
2022/01/13 06:08:25;;;;;;;111.28;67.03;;;-2.60;99.90;;;;;;5013672;28;20037;-73
2022/01/13 06:10:51;;;;;;;101.65;66.88;;;-2.60;99.90;;;;;;4996106;28;20591;-74
2022/01/13 06:13:17;;;;;;;110.15;70.30;;;-2.60;99.90;;;;;;5013545;28;20038;-73
2022/01/13 06:15:43;;;;;;;114.00;72.38;;;-2.70;99.90;;;;;;5013713;28;20026;-73
2022/01/13 06:18:14;;;;;;;108.75;73.07;;;-2.70;99.90;;;;;;5013942;28;20065;-73
2022/01/13 06:20:42;;;;;;;117.27;71.40;;;-2.70;99.90;;;;;;4995756;28;20083;-72
2022/01/13 06:23:08;;;;;;;116.28;75.03;;;-2.60;99.90;;;;;;5013730;28;20278;-73
2022/01/13 06:25:35;;;;;;;117.95;74.18;;;-2.70;99.90;;;;;;5013117;28;20026;-73
2022/01/13 06:28:01;;;;;;;116.15;70.30;;;-2.60;99.90;;;;;;5013266;28;20152;-73
2022/01/13 06:30:29;;;;;;;107.53;69.80;;;-2.50;99.90;;;;;;5012851;28;20559;-73
2022/01/13 06:32:56;;;;;;;104.70;69.43;;;-2.50;99.90;;;;;;5012806;28;20066;-74
2022/01/13 06:35:22;;;;;;;99.20;66.85;;;-2.40;99.90;;;;;;5013943;28;20197;-72
2022/01/13 06:37:48;;;;;;;105.60;65.78;;;-2.50;99.90;;;;;;4998905;28;20037;-72
2022/01/13 06:40:15;;;;;;;108.15;65.07;;;-2.40;99.90;;;;;;5012808;28;20076;-72
2022/01/13 06:42:42;;;;;;;107.72;66.35;;;-2.40;99.90;;;;;;5025181;28;20029;-72
2022/01/13 06:45:10;;;;;;;125.00;75.57;;;-2.20;99.90;;;;;;5019586;28;20033;-73
2022/01/13 06:47:38;;;;;;;144.40;88.20;;;-2.20;99.90;;;;;;5013116;28;20014;-72
2022/01/13 06:50:04;;;;;;;135.40;81.38;;;-2.20;99.90;;;;;;5012998;28;20025;-73
2022/01/13 06:52:30;;;;;;;132.38;76.32;;;-2.30;99.90;;;;;;5012789;28;20496;-73
2022/01/13 06:54:56;;;;;;;109.32;68.35;;;-2.30;99.90;;;;;;5012607;28;20049;-73
2022/01/13 06:57:22;;;;;;;108.82;64.78;;;-2.30;99.90;;;;;;5012471;28;20045;-73
2022/01/13 06:59:48;;;;;;;115.18;64.82;;;-2.20;99.90;;;;;;5012794;28;20239;-74
2022/01/13 07:02:14;;;;;;;125.03;72.13;;;-2.30;99.90;;;;;;4995077;28;20445;-73
2022/01/13 07:04:42;;;;;;;145.63;82.03;;;-2.30;99.90;;;;;;4995209;28;20029;-73
2022/01/13 07:07:08;;;;;;;141.38;80.07;;;-2.10;99.90;;;;;;5012789;28;20022;-73
2022/01/13 07:09:35;;;;;;;122.00;75.65;;;-2.20;99.90;;;;;;5012848;28;20033;-74
2022/01/13 07:12:01;;;;;;;126.70;81.00;;;-2.10;99.90;;;;;;5012665;28;20514;-73
2022/01/13 07:14:27;;;;;;;129.98;81.35;;;-2.00;99.90;;;;;;5011994;28;20030;-73
2022/01/13 07:16:52;;;;;;;119.18;72.90;;;-1.90;99.90;;;;;;5012326;28;20057;-74
2022/01/13 07:19:18;;;;;;;114.43;71.13;;;-1.80;99.90;;;;;;5012089;28;20657;-74
2022/01/13 07:21:45;;;;;;;113.13;74.90;;;-1.70;99.90;;;;;;5012400;28;20040;-73
2022/01/13 07:24:11;;;;;;;121.47;78.18;;;-1.80;99.90;;;;;;5012015;28;20224;-73
2022/01/13 07:26:37;;;;;;;122.20;80.80;;;-1.80;99.90;;;;;;5012024;28;20079;-74
2022/01/13 07:29:05;;;;;;;115.40;75.45;;;-1.80;99.90;;;;;;5012209;28;20060;-74
2022/01/13 07:31:31;;;;;;;112.60;71.72;;;-1.70;99.90;;;;;;5012223;28;20026;-73
2022/01/13 07:34:00;;;;;;;115.97;71.13;;;-1.80;99.90;;;;;;5017975;28;20111;-74
2022/01/13 07:36:27;;;;;;;118.38;75.30;;;-1.80;99.90;;;;;;5022815;28;20022;-75
2022/01/13 07:38:55;;;;;;;113.40;74.35;;;-1.70;99.90;;;;;;5022964;28;20440;-73
2022/01/13 07:41:23;;;;;;;120.13;78.03;;;-1.70;99.90;;;;;;4993061;28;20053;-74
2022/01/13 07:43:53;;;;;;;104.70;67.97;;;-1.50;99.90;;;;;;4993463;28;20062;-74
2022/01/13 07:46:23;;;;;;;110.38;66.25;;;-1.50;99.90;;;;;;4992598;28;20034;-73
2022/01/13 07:48:50;;;;;;;97.57;62.70;;;-1.40;99.90;;;;;;4992297;28;20022;-74
2022/01/13 07:51:16;;;;;;;105.88;64.18;;;-1.20;99.90;;;;;;4992492;28;20026;-71
2022/01/13 07:53:42;;;;;;;103.15;62.28;;;-1.20;99.90;;;;;;4992501;28;20152;-73
2022/01/13 07:56:09;;;;;;;98.97;61.05;;;-1.20;99.90;;;;;;4999590;28;20019;-74
2022/01/13 07:58:35;;;;;;;102.70;59.13;;;-1.20;99.90;;;;;;4994987;28;20148;-73
2022/01/13 08:01:02;;;;;;;93.93;55.20;;;-1.10;99.90;;;;;;4993921;28;20030;-73
2022/01/13 08:03:28;;;;;;;88.93;54.55;;;-1.20;99.90;;;;;;4995509;28;20033;-72
2022/01/13 08:05:54;;;;;;;82.45;50.08;;;-1.00;99.90;;;;;;4986620;28;20380;-74
2022/01/13 08:08:32;;;;;;;86.70;48.30;;;-0.90;99.90;;;;;;4994935;28;20045;-74
2022/01/13 08:11:00;;;;;;;82.70;47.33;;;-1.00;99.90;;;;;;4976017;28;20590;-74
2022/01/13 08:13:25;;;;;;;82.70;45.63;;;-1.00;99.90;;;;;;4991779;28;20038;-72
2022/01/13 08:15:54;;;;;;;66.72;39.67;;;-1.00;99.90;;;;;;4995190;28;20437;-74
2022/01/13 08:21:08;;;;;;;79.50;46.38;;;-0.80;99.90;;;;;;5005589;28;20034;-72
2022/01/13 08:23:34;;;;;;;67.28;41.35;;;-0.70;99.90;;;;;;5000864;28;20037;-76
2022/01/13 08:26:00;;;;;;;72.30;43.50;;;-0.50;99.90;;;;;;4998046;28;20031;-74
2022/01/13 08:28:28;;;;;;;74.90;45.58;;;-0.50;99.90;;;;;;4997318;28;20093;-74
2022/01/13 08:30:58;;;;;;;81.53;48.63;;;-0.60;99.90;;;;;;4996292;28;20026;-74
2022/01/13 08:33:25;;;;;;;72.28;45.47;;;-0.50;99.90;;;;;;4995963;28;20038;-73
2022/01/13 08:35:53;;;;;;;76.22;47.88;;;-0.60;99.90;;;;;;5003894;28;20061;-75
2022/01/13 08:38:20;;;;;;;75.63;47.72;;;-0.40;99.90;;;;;;4996117;28;20037;-74
2022/01/13 08:40:56;;;;;;;74.00;47.40;;;-0.20;99.90;;;;;;4986335;28;20400;-74
2022/01/13 08:43:26;;;;;;;70.57;43.05;;;-0.20;99.90;;;;;;4978577;28;20061;-74
2022/01/13 08:45:52;;;;;;;80.53;47.70;;;-0.20;99.90;;;;;;4995560;28;20487;-74
2022/01/13 08:48:18;;;;;;;76.72;45.90;;;-0.20;99.90;;;;;;4995691;28;20042;-74
2022/01/13 08:50:45;;;;;;;71.57;46.78;;;0.10;99.90;;;;;;4995487;28;20073;-74
2022/01/13 08:53:13;;;;;;;70.18;44.80;;;0.20;99.90;;;;;;4995271;28;20392;-74
2022/01/13 08:55:39;;;;;;;72.43;46.60;;;0.30;99.90;;;;;;4977357;28;20344;-74
2022/01/13 08:58:07;;;;;;;72.75;46.70;;;0.20;99.90;;;;;;4993941;28;20073;-74
2022/01/13 09:00:36;;;;;;;78.70;50.50;;;0.10;99.90;;;;;;4995364;28;20065;-74
2022/01/13 09:03:07;;;;;;;80.13;51.25;;;0.30;99.90;;;;;;4994783;28;20026;-74
2022/01/13 09:05:35;;;;;;;78.65;50.38;;;0.60;99.90;;;;;;4994871;28;20026;-74
2022/01/13 09:08:12;;;;;;;80.82;49.83;;;0.50;99.90;;;;;;5003922;28;20337;-75
2022/01/13 09:10:40;;;;;;;80.22;48.15;;;0.30;99.90;;;;;;4978025;28;20026;-74
2022/01/13 09:13:12;;;;;;;79.43;49.67;;;0.30;99.90;;;;;;4995070;28;20040;-74
2022/01/13 09:15:44;;;;;;;81.65;51.40;;;0.40;99.90;;;;;;4995535;28;20026;-73
2022/01/13 09:18:15;;;;;;;84.25;53.40;;;0.60;99.90;;;;;;4994907;28;20022;-74
2022/01/13 09:20:42;;;;;;;78.82;52.28;;;0.60;99.90;;;;;;4994870;28;20089;-74
2022/01/13 09:23:09;;;;;;;86.32;54.25;;;0.80;99.90;;;;;;4994744;28;20491;-73
2022/01/13 09:25:35;;;;;;;77.50;49.00;;;0.90;99.90;;;;;;4995427;28;20384;-74
2022/01/13 09:28:06;;;;;;;87.30;54.65;;;0.80;99.90;;;;;;4996594;28;20076;-73
2022/01/13 09:30:33;;;;;;;90.30;53.65;;;0.70;99.90;;;;;;4995250;28;20049;-74
2022/01/13 09:32:59;;;;;;;82.75;50.30;;;0.40;99.90;;;;;;4994692;28;20031;-74
2022/01/13 09:35:25;;;;;;;80.60;48.60;;;0.70;99.90;;;;;;4994445;28;20034;-75
2022/01/13 09:37:51;;;;;;;74.50;48.25;;;0.70;99.90;;;;;;4993706;28;20041;-73
2022/01/13 09:40:17;;;;;;;80.63;48.17;;;0.70;99.90;;;;;;4994280;28;20038;-74
2022/01/13 09:42:44;;;;;;;68.57;44.90;;;0.80;99.90;;;;;;4994301;28;20034;-75
2022/01/13 09:45:12;;;;;;;71.75;44.28;;;0.60;99.90;;;;;;4994201;28;20097;-75
2022/01/13 09:47:39;;;;;;;77.50;49.97;;;0.50;99.90;;;;;;4976600;28;20018;-74
2022/01/13 09:50:12;;;;;;;79.95;47.70;;;0.50;99.90;;;;;;4994595;28;20350;-74
2022/01/13 09:52:39;;;;;;;82.25;51.40;;;0.50;99.90;;;;;;4994731;28;20034;-74
2022/01/13 09:55:08;;;;;;;84.10;52.05;;;0.70;99.90;;;;;;4994528;28;20035;-75
2022/01/13 09:57:34;;;;;;;89.15;52.45;;;0.50;99.90;;;;;;4976511;28;20049;-75
2022/01/13 10:00:00;;;;;;;87.65;53.05;;;0.50;99.90;;;;;;4994975;28;20392;-75
2022/01/13 10:02:36;;;;;;;67.30;44.13;;;0.60;99.90;;;;;;4994993;28;20026;-75
2022/01/13 10:05:09;;;;;;;76.32;45.05;;;0.60;99.90;;;;;;5005680;28;20026;-76
2022/01/13 10:07:43;;;;;;;71.07;44.20;;;0.80;99.90;;;;;;5000131;28;20538;-75
2022/01/13 10:10:16;;;;;;;74.45;48.38;;;0.80;99.90;;;;;;4978019;28;20386;-75
2022/01/13 10:12:48;;;;;;;68.22;40.78;;;0.80;99.90;;;;;;4998602;28;20057;-75
2022/01/13 10:18:05;;;;;;;63.08;36.60;;;1.10;99.90;;;;;;4994089;28;20030;-75
2022/01/13 10:20:32;;;;;;;61.78;34.63;;;1.20;99.90;;;;;;4994002;28;20022;-75
2022/01/13 10:23:12;;;;;;;55.50;32.97;;;1.00;98.90;;;;;;4993363;28;20030;-75
2022/01/13 10:25:45;;;;;;;54.90;31.30;;;1.10;98.90;;;;;;4993687;28;20023;-75
2022/01/13 10:28:29;;;;;;;;;;;1.20;99.90;;;;;;4994127;28;20392;-74
2022/01/13 10:30:55;;;;;;;55.70;34.45;;;1.20;98.40;;;;;;4993724;28;20399;-75
2022/01/13 10:33:29;;;;;;;50.08;29.75;;;1.30;99.90;;;;;;4992974;28;20100;-73
2022/01/13 10:36:10;;;;;;;50.38;29.48;;;1.40;98.20;;;;;;4993817;28;20026;-74
2022/01/13 10:38:53;;;;;;;47.25;30.52;;;1.50;97.70;;;;;;4993517;28;20500;-75
2022/01/13 10:44:20;;;;;;;43.58;27.50;;;1.60;96.90;;;;;;4992652;28;20515;-74
2022/01/13 10:47:04;;;;;;;42.83;25.25;;;1.50;93.60;;;;;;4993369;28;20026;-75
2022/01/13 10:49:37;;;;;;;39.92;24.67;;;1.40;96.10;;;;;;4992641;28;20097;-74
2022/01/13 10:52:26;;;;;;;43.33;25.02;;;1.40;97.00;;;;;;4992811;28;20434;-75
2022/01/13 10:55:09;;;;;;;42.05;25.83;;;1.50;96.50;;;;;;4993017;28;20401;-74
2022/01/13 10:57:37;;;;;;;45.35;25.80;;;1.60;98.30;;;;;;4993138;28;20489;-73
2022/01/13 11:00:18;;;;;;;38.28;22.33;;;1.60;97.90;;;;;;4993439;28;20034;-75
2022/01/13 11:02:45;;;;;;;37.92;23.52;;;1.60;94.30;;;;;;4993079;28;20033;-74
2022/01/13 11:05:12;;;;;;;48.42;25.00;;;1.80;95.20;;;;;;4993073;28;20053;-75
2022/01/13 11:07:43;;;;;;;39.10;22.75;;;1.60;92.90;;;;;;4992523;28;20030;-74
2022/01/13 11:10:10;;;;;;;36.47;21.77;;;1.50;93.90;;;;;;4991051;28;20149;-74
2022/01/13 11:12:40;;;;;;;40.85;24.38;;;1.20;93.60;;;;;;4989377;28;20153;-73
2022/01/13 11:15:12;;;;;;;41.67;25.45;;;1.50;96.80;;;;;;4991261;28;20038;-74
2022/01/13 11:17:40;;;;;;;43.65;26.42;;;1.60;96.60;;;;;;4991614;28;20469;-74
2022/01/13 11:20:08;;;;;;;45.40;27.58;;;1.70;95.70;;;;;;4992333;28;20058;-74
2022/01/13 11:22:41;;;;;;;47.80;28.15;;;1.80;95.80;;;;;;4992424;28;20030;-74
2022/01/13 11:25:10;;;;;;;41.45;22.67;;;1.80;95.20;;;;;;4984545;28;20074;-77
2022/01/13 11:27:37;;;;;;;37.78;22.58;;;1.60;94.70;;;;;;4970927;28;20030;-77
2022/01/13 11:30:07;;;;;;;37.22;20.30;;;1.50;93.30;;;;;;4972676;28;20030;-77
2022/01/13 11:32:33;;;;;;;46.10;25.08;;;1.60;94.40;;;;;;4981768;28;20040;-76
2022/01/13 11:35:00;;;;;;;38.85;23.58;;;1.60;94.00;;;;;;4991660;28;20077;-76
2022/01/13 11:37:31;;;;;;;41.70;24.17;;;1.60;94.20;;;;;;4988132;28;20040;-76
2022/01/13 11:39:58;;;;;;;41.22;22.70;;;1.70;93.70;;;;;;4994625;28;20040;-76
2022/01/13 11:42:24;;;;;;;43.15;23.83;;;1.60;94.10;;;;;;4997890;28;20088;-73
2022/01/13 11:45:16;;;;;;;42.70;26.35;;;1.60;93.70;;;;;;4990989;28;20026;-75
2022/01/13 11:47:44;;;;;;;39.00;22.33;;;1.50;94.40;;;;;;4989440;28;20033;-75
2022/01/13 11:50:22;;;;;;;42.40;23.23;;;1.50;95.00;;;;;;4995340;28;20504;-77
2022/01/13 11:52:53;;;;;;;44.58;25.38;;;1.60;93.90;;;;;;4968959;28;20038;-77
2022/01/13 11:55:41;;;;;;;47.47;27.70;;;1.50;93.90;;;;;;4993514;28;20037;-76
2022/01/13 11:58:17;;;;;;;50.83;30.02;;;1.50;93.70;;;;;;4991886;28;20053;-75
2022/01/13 12:00:46;;;;;;;87.57;48.58;;;1.60;95.00;;;;;;4992782;28;20022;-74
2022/01/13 12:03:24;;;;;;;43.95;24.85;;;1.50;93.80;;;;;;4992115;28;20033;-75
2022/01/13 12:05:50;;;;;;;55.08;34.17;;;1.50;93.90;;;;;;4992082;28;20032;-75
2022/01/13 12:08:51;;;;;;;50.13;30.23;;;1.50;95.40;;;;;;4992325;28;20394;-75
2022/01/13 12:11:39;;;;;;;44.53;28.13;;;1.70;95.20;;;;;;4991995;28;20088;-75
2022/01/13 12:14:29;;;;;;;42.03;25.50;;;1.70;94.00;;;;;;4974255;28;20523;-74
2022/01/13 12:17:03;;;;;;;38.97;23.77;;;1.60;94.70;;;;;;4973765;28;20093;-75
2022/01/13 12:19:36;;;;;;;35.92;22.10;;;1.60;94.70;;;;;;4994672;28;20030;-74
2022/01/13 12:22:15;;;;;;;39.50;23.33;;;1.60;95.90;;;;;;4992014;28;20022;-75
2022/01/13 12:24:52;;;;;;;42.50;26.73;;;1.50;95.80;;;;;;4991779;28;20038;-75
2022/01/13 12:27:42;;;;;;;39.60;22.60;;;1.60;97.10;;;;;;4991714;28;20044;-75
2022/01/13 12:30:23;;;;;;;42.13;24.20;;;1.60;95.90;;;;;;4986403;28;20041;-75
2022/01/13 12:32:52;;;;;;;45.35;25.85;;;1.50;95.30;;;;;;4994957;28;20031;-74
2022/01/13 12:35:42;;;;;;;41.03;21.17;;;1.40;96.60;;;;;;4991829;28;20076;-75
2022/01/13 12:38:18;;;;;;;45.58;24.98;;;1.50;96.80;;;;;;4991867;28;20085;-74
2022/01/13 12:41:04;;;;;;;52.20;29.42;;;1.50;96.50;;;;;;4991830;28;20073;-74
2022/01/13 12:46:09;;;;;;;41.75;22.70;;;1.50;95.40;;;;;;4991488;28;20034;-75
2022/01/13 12:48:37;;;;;;;36.17;20.02;;;1.40;95.10;;;;;;4990804;28;20104;-74
2022/01/13 12:51:03;;;;;;;35.30;21.17;;;1.30;96.80;;;;;;4992376;28;20022;-75
2022/01/13 12:53:32;;;;;;;42.30;24.75;;;1.30;96.50;;;;;;4992715;28;20038;-75
2022/01/13 12:56:07;;;;;;;49.10;24.02;;;1.30;95.80;;;;;;4991496;28;20473;-76
2022/01/13 12:58:45;;;;;;;46.00;27.48;;;1.30;98.40;;;;;;4991165;28;20070;-74
2022/01/13 13:01:23;;;;;;;44.40;24.92;;;1.30;98.70;;;;;;4991624;28;20495;-75
2022/01/13 13:04:13;;;;;;;43.53;25.98;;;1.20;99.20;;;;;;4991525;28;20034;-75
2022/01/13 13:06:46;;;;;;;44.28;25.20;;;1.20;99.90;;;;;;4950271;28;20035;-75
2022/01/13 13:09:22;;;;;;;48.33;26.42;;;1.30;98.80;;;;;;4950295;28;20199;-75
2022/01/13 13:11:59;;;;;;;48.67;25.15;;;1.20;99.90;;;;;;4954157;28;20103;-74